Katerina L — 3FQL2 — position and weather

sailwx.info

Track history (hours):
 
Tides and Currents Weather Stations Pressure Air Temp Water Temp Dewpoint Dewpoint Depression Visibility Wind Speed Wind Dir Waves Ship Positions

Katerina L

Last reported at 2016-Apr-24 11:18 UTC. Time now 2016-May-03 06:51 UTC.
Position N 34°21' E 031°22'.
Warning: this ship's position is 8 days out of date.

Length 91 m; draft 4 m.

Type: Tanker. MMSI: 356460000.

Date/timePositionNaut miles runAvg speedWind from/ knotsBaromVisibWave heightAir tempDewpointWater temp
2016-Apr-24 11:18N 34°21' E 031°22'7 9.7
2016-Apr-24 10:33N 34°19' E 031°30'10 9.7
2016-Apr-24 09:31N 34°16' E 031°42'9 9.7
2016-Apr-24 08:33N 34°14' E 031°53'10 9.6
2016-Apr-24 07:33N 34°12' E 032°04'10 9.6
2016-Apr-24 06:33N 34°10' E 032°16'10 9.8
2016-Apr-24 05:33N 34°07' E 032°27'1210.0
2016-Apr-24 04:21N 34°04' E 032°41'8 9.6
2016-Apr-24 03:34N 34°03' E 032°50'9 9.3
2016-Apr-24 02:33N 34°00' E 033°01'12 9.4
2016-Apr-24 01:18N 33°57' E 033°15'7 9.2
2016-Apr-24 00:32N 33°55' E 033°23'9 9.2
2016-Apr-23 23:33N 33°53' E 033°34'9 9.1
2016-Apr-23 22:33N 33°51' E 033°44'9 9.4
2016-Apr-23 21:33N 33°49' E 033°55'10 9.6
2016-Apr-23 20:32N 33°47' E 034°07'1010.1
2016-Apr-23 19:29N 33°44' E 034°19'910.1
2016-Apr-23 18:33N 33°42' E 034°30'1110.3
2016-Apr-23 17:31N 33°40' E 034°43'10 9.6
2016-Apr-23 16:31N 33°36' E 034°53'3 3.2
2016-Apr-23 15:34N 33°36' E 034°57'10 9.7
2016-Apr-23 14:34N 33°34' E 035°08'9 9.2
2016-Apr-23 13:33N 33°34' E 035°19'2 2.4
2016-Apr-23 12:31N 33°34' E 035°22'0 0.0
2016-Apr-23 06:25N 33°34' E 035°22'0 0.0
2016-Apr-22 19:22N 33°34' E 035°22'0 0.0
2016-Apr-22 16:28N 33°34' E 035°22'0 0.0
2016-Apr-22 15:31N 33°34' E 035°22'0 0.0
2016-Apr-22 11:33N 33°34' E 035°22'  
2016-Apr-16 05:15N 35°51' E 025°07'8 9.3
2016-Apr-16 04:24N 35°52' E 024°57'  
Track history (hours):
 
Tides and Currents Weather Stations Pressure Air Temp Water Temp Dewpoint Dewpoint Depression Visibility Wind Speed Wind Dir Waves Ship Positions

Katerina L

Last reported at 2016-Apr-24 11:18 UTC. Time now 2016-May-03 06:51 UTC.
Position N 34°21' E 031°22'.
Warning: this ship's position is 8 days out of date.

Length 91 m; draft 4 m.

Type: Tanker. MMSI: 356460000.

Date/timePositionNaut miles runAvg speedWind from/ knotsBaromVisibWave heightAir tempDewpointWater temp
2016-Apr-24 11:18N 34°21' E 031°22'7 9.7
2016-Apr-24 10:33N 34°19' E 031°30'10 9.7
2016-Apr-24 09:31N 34°16' E 031°42'9 9.7
2016-Apr-24 08:33N 34°14' E 031°53'10 9.6
2016-Apr-24 07:33N 34°12' E 032°04'10 9.6
2016-Apr-24 06:33N 34°10' E 032°16'10 9.8
2016-Apr-24 05:33N 34°07' E 032°27'1210.0
2016-Apr-24 04:21N 34°04' E 032°41'8 9.6
2016-Apr-24 03:34N 34°03' E 032°50'9 9.3
2016-Apr-24 02:33N 34°00' E 033°01'12 9.4
2016-Apr-24 01:18N 33°57' E 033°15'7 9.2
2016-Apr-24 00:32N 33°55' E 033°23'9 9.2
2016-Apr-23 23:33N 33°53' E 033°34'9 9.1
2016-Apr-23 22:33N 33°51' E 033°44'9 9.4
2016-Apr-23 21:33N 33°49' E 033°55'10 9.6
2016-Apr-23 20:32N 33°47' E 034°07'1010.1
2016-Apr-23 19:29N 33°44' E 034°19'910.1
2016-Apr-23 18:33N 33°42' E 034°30'1110.3
2016-Apr-23 17:31N 33°40' E 034°43'10 9.6
2016-Apr-23 16:31N 33°36' E 034°53'3 3.2
2016-Apr-23 15:34N 33°36' E 034°57'10 9.7
2016-Apr-23 14:34N 33°34' E 035°08'9 9.2
2016-Apr-23 13:33N 33°34' E 035°19'2 2.4
2016-Apr-23 12:31N 33°34' E 035°22'0 0.0
2016-Apr-23 06:25N 33°34' E 035°22'0 0.0
2016-Apr-22 19:22N 33°34' E 035°22'0 0.0
2016-Apr-22 16:28N 33°34' E 035°22'0 0.0
2016-Apr-22 15:31N 33°34' E 035°22'0 0.0
2016-Apr-22 11:33N 33°34' E 035°22'  
2016-Apr-16 05:15N 35°51' E 025°07'8 9.3
2016-Apr-16 04:24N 35°52' E 024°57'  

Dump ship's entire track history